createdAt,value
2023-11-01T00:01:16.649Z,1001.15
2023-11-01T00:07:36.624Z,1001.16
2023-11-01T00:13:58.633Z,1001.14
2023-11-01T00:20:17.695Z,1001.09
2023-11-01T00:26:39.652Z,1001.11
2023-11-01T00:32:59.741Z,1001.16
2023-11-01T00:39:21.609Z,1001.02
2023-11-01T00:45:40.812Z,1000.93
2023-11-01T00:52:02.692Z,1001.01
2023-11-01T00:58:22.665Z,1000.93
2023-11-01T01:04:44.630Z,1000.81
2023-11-01T01:11:04.659Z,1000.77
2023-11-01T01:17:26.716Z,1000.68
2023-11-01T01:23:46.658Z,1000.53
2023-11-01T01:30:08.707Z,1000.53
2023-11-01T01:36:27.636Z,1000.43
2023-11-01T01:42:49.627Z,1000.33
2023-11-01T01:49:09.634Z,1000.27
2023-11-01T01:55:30.624Z,1000.14
2023-11-01T02:01:50.615Z,999.97
2023-11-01T02:08:11.659Z,999.93
2023-11-01T02:14:31.615Z,999.85
2023-11-01T02:20:52.622Z,999.76
2023-11-01T02:27:12.641Z,999.68
2023-11-01T02:33:34.627Z,999.59
2023-11-01T02:39:54.612Z,999.54
2023-11-01T02:46:15.669Z,999.34
2023-11-01T02:52:35.611Z,999.28
2023-11-01T02:58:57.603Z,999.21
2023-11-01T03:05:17.760Z,999.26
2023-11-01T03:11:39.678Z,999.15
2023-11-01T03:17:59.666Z,999.11
2023-11-01T03:24:21.632Z,999.17
2023-11-01T03:30:40.615Z,999.17
2023-11-01T03:54:02.646Z,999.17
2023-11-01T04:00:23.619Z,999.13
2023-11-01T04:06:43.625Z,999.13
2023-11-01T04:13:05.644Z,999.1
2023-11-01T04:19:25.630Z,999.05
2023-11-01T04:25:47.633Z,999.03
2023-11-01T04:32:07.638Z,998.94
2023-11-01T04:38:29.605Z,998.93
2023-11-01T04:44:48.633Z,998.66
2023-11-01T04:51:10.636Z,998.59
2023-11-01T04:57:29.624Z,998.61
2023-11-01T05:03:51.654Z,998.61
2023-11-01T05:10:10.636Z,998.54
2023-11-01T05:16:31.635Z,998.51
2023-11-01T05:22:51.601Z,998.42
2023-11-01T05:29:12.638Z,998.38
2023-11-01T05:35:32.609Z,998.38
2023-11-01T05:41:53.603Z,998.4
2023-11-01T05:48:13.677Z,998.36
2023-11-01T05:54:35.614Z,998.37
2023-11-01T06:00:55.611Z,998.36
2023-11-01T06:07:17.631Z,998.44
2023-11-01T06:13:36.609Z,998.45
2023-11-01T06:19:57.619Z,998.48
2023-11-01T06:26:17.933Z,998.47
2023-11-01T06:32:39.705Z,998.49
2023-11-01T06:38:59.616Z,998.49
2023-11-01T06:45:21.649Z,998.55
2023-11-01T06:51:41.647Z,998.52
2023-11-01T06:58:03.611Z,998.56
2023-11-01T07:04:23.668Z,998.59
2023-11-01T07:10:45.612Z,998.63
2023-11-01T07:17:04.623Z,998.54
2023-11-01T07:23:26.692Z,998.52
2023-11-01T07:29:46.649Z,998.48
2023-11-01T07:36:07.620Z,998.48
2023-11-01T07:42:27.629Z,998.38
2023-11-01T07:48:48.647Z,998.38
2023-11-01T07:55:08.615Z,998.3
2023-11-01T08:01:30.690Z,998.3
2023-11-01T08:07:50.623Z,998.33
2023-11-01T08:14:12.633Z,998.21
2023-11-01T08:20:32.701Z,998.23
2023-11-01T08:26:54.659Z,998.28
2023-11-01T08:33:14.638Z,998.29
2023-11-01T08:39:36.696Z,998.28
2023-11-01T08:45:57.696Z,998.31
2023-11-01T08:52:19.875Z,998.3
2023-11-01T08:58:39.934Z,998.27
2023-11-01T09:14:48.157Z,998.16
2023-11-01T09:21:07.611Z,998.11
2023-11-01T09:27:28.616Z,998.26
2023-11-01T09:33:48.708Z,998.29
2023-11-01T09:40:10.631Z,998.28
2023-11-01T09:46:31.968Z,998.24
2023-11-01T09:52:53.779Z,998.15
2023-11-01T09:59:13.709Z,998.18
2023-11-01T10:05:35.637Z,998.16
2023-11-01T10:11:55.814Z,998.11
2023-11-01T10:18:17.678Z,998.03
2023-11-01T10:24:37.645Z,998.02
2023-11-01T10:30:59.635Z,997.99
2023-11-01T10:37:19.712Z,997.89
2023-11-01T10:43:41.671Z,997.89
2023-11-01T10:50:01.647Z,997.77
2023-11-01T10:56:23.640Z,997.71
2023-11-01T11:02:43.729Z,997.6
2023-11-01T11:09:05.645Z,997.41
2023-11-01T11:15:25.642Z,997.27
2023-11-01T11:21:47.616Z,997.17
2023-11-01T11:28:07.641Z,997.07
2023-11-01T11:34:29.857Z,996.93
2023-11-01T11:40:49.630Z,996.81
2023-11-01T11:47:11.753Z,996.72
2023-11-01T11:53:31.646Z,996.71
2023-11-01T11:59:53.649Z,996.65
2023-11-01T12:06:13.754Z,996.56
2023-11-01T12:12:35.692Z,996.51
2023-11-01T12:18:55.625Z,996.34
2023-11-01T12:25:17.915Z,996.28
2023-11-01T12:31:37.865Z,996.18
2023-11-01T12:37:59.616Z,996.16
2023-11-01T12:44:19.739Z,996.06
2023-11-01T12:50:41.780Z,996
2023-11-01T12:57:01.933Z,995.83
2023-11-01T13:03:23.726Z,995.74
2023-11-01T13:09:43.624Z,995.79
2023-11-01T13:16:04.657Z,995.7
2023-11-01T13:22:24.651Z,995.58
2023-11-01T13:28:45.612Z,995.38
2023-11-01T13:35:05.616Z,995.27
2023-11-01T13:41:27.644Z,995.22
2023-11-01T13:47:47.684Z,995.1
2023-11-01T13:54:09.953Z,994.95
2023-11-01T14:00:29.648Z,994.87
2023-11-01T14:06:51.703Z,994.79
2023-11-01T14:13:11.620Z,994.66
2023-11-01T14:36:50.633Z,994.53
2023-11-01T14:43:12.676Z,994.58
2023-11-01T14:49:32.648Z,994.51
2023-11-01T14:55:54.632Z,994.51
2023-11-01T15:02:14.611Z,994.55
2023-11-01T15:08:36.638Z,994.62
2023-11-01T15:14:56.722Z,994.53
2023-11-01T15:21:18.677Z,994.48
2023-11-01T15:27:38.629Z,994.37
2023-11-01T15:34:00.683Z,994.31
2023-11-01T15:40:20.639Z,994.28
2023-11-01T15:46:43.507Z,994.25
2023-11-01T15:53:02.643Z,994.15
2023-11-01T15:59:24.753Z,994.08
2023-11-01T16:05:44.632Z,993.97
2023-11-01T16:12:06.793Z,993.98
2023-11-01T16:18:26.657Z,993.89
2023-11-01T16:24:48.609Z,993.75
2023-11-01T16:31:07.632Z,993.8
2023-11-01T16:37:29.651Z,993.77
2023-11-01T16:43:49.608Z,993.66
2023-11-01T16:50:11.703Z,993.62
2023-11-01T16:56:31.621Z,993.63
2023-11-01T17:02:53.763Z,993.74
2023-11-01T17:09:13.720Z,993.78
2023-11-01T17:15:35.611Z,993.74
2023-11-01T17:21:55.617Z,993.85
2023-11-01T17:28:17.699Z,993.96
2023-11-01T17:34:37.610Z,993.95
2023-11-01T17:40:59.636Z,994
2023-11-01T17:47:19.647Z,994.1
2023-11-01T17:53:40.639Z,993.99
2023-11-01T18:00:00.842Z,993.98
2023-11-01T18:06:21.673Z,993.86
2023-11-01T18:12:41.613Z,994
2023-11-01T18:19:03.603Z,994.01
2023-11-01T18:25:23.647Z,993.95
2023-11-01T18:31:45.605Z,993.95
2023-11-01T18:38:04.621Z,993.8
2023-11-01T18:44:26.651Z,993.69
2023-11-01T18:50:46.615Z,993.72
2023-11-01T18:57:08.656Z,993.72
2023-11-01T19:03:28.706Z,993.86
2023-11-01T19:09:50.621Z,993.72
2023-11-01T19:16:10.600Z,993.6
2023-11-01T19:22:32.640Z,993.64
2023-11-01T19:28:53.081Z,993.65
2023-11-01T19:35:14.611Z,993.71
2023-11-01T19:58:17.149Z,993.78
2023-11-01T20:04:36.627Z,993.62
2023-11-01T20:10:58.625Z,993.64
2023-11-01T20:17:18.639Z,993.52
2023-11-01T20:23:40.641Z,993.36
2023-11-01T20:30:00.731Z,993.38
2023-11-01T20:36:22.666Z,993.29
2023-11-01T20:42:42.615Z,993.32
2023-11-01T20:49:04.617Z,993.29
2023-11-01T20:55:24.647Z,993.18
2023-11-01T21:01:46.614Z,993.12
2023-11-01T21:08:06.790Z,992.99
2023-11-01T21:14:28.745Z,992.84
2023-11-01T21:20:48.691Z,992.65
2023-11-01T21:27:10.641Z,992.46
2023-11-01T21:33:30.741Z,992.28
2023-11-01T21:39:52.614Z,992.1
2023-11-01T21:46:12.605Z,991.95
2023-11-01T21:52:33.656Z,991.94
2023-11-01T21:58:53.885Z,991.8
2023-11-01T22:05:15.666Z,991.81
2023-11-01T22:11:35.642Z,991.72
2023-11-01T22:17:56.668Z,991.56
2023-11-01T22:24:16.652Z,991.45
2023-11-01T22:30:38.649Z,991.29
2023-11-01T22:36:58.607Z,991.15
2023-11-01T22:43:20.600Z,991.05
2023-11-01T22:49:39.828Z,990.95
2023-11-01T22:56:01.708Z,990.91
2023-11-01T23:20:15.633Z,990.36
2023-11-01T23:26:35.604Z,990.25
2023-11-01T23:32:57.648Z,990.09
2023-11-01T23:39:17.670Z,989.99
2023-11-01T23:45:39.645Z,989.88
2023-11-01T23:51:59.597Z,989.74
2023-11-01T23:58:21.643Z,989.64
